createdAt,value
2018-01-19T00:00:20.978Z,0
2018-01-19T00:01:21.698Z,0
2018-01-19T00:02:22.402Z,0
2018-01-19T00:03:23.107Z,0
2018-01-19T00:04:23.809Z,0
2018-01-19T00:05:24.514Z,0
2018-01-19T00:06:25.215Z,0
2018-01-19T00:07:25.919Z,0
2018-01-19T00:08:26.638Z,0
2018-01-19T00:09:27.340Z,0
2018-01-19T00:10:28.044Z,0
2018-01-19T00:11:28.748Z,0
2018-01-19T00:12:29.468Z,0
2018-01-19T00:13:30.173Z,0
2018-01-19T00:14:30.877Z,0
2018-01-19T00:15:31.581Z,0
2018-01-19T00:16:32.301Z,0
2018-01-19T00:17:33.017Z,0
2018-01-19T00:18:33.720Z,0
2018-01-19T00:19:34.441Z,0
2018-01-19T00:20:35.158Z,0
2018-01-19T00:21:35.864Z,0
2018-01-19T00:22:36.567Z,0
2018-01-19T00:23:37.272Z,0
2018-01-19T00:24:37.975Z,0
2018-01-19T00:25:38.679Z,0
2018-01-19T00:26:39.383Z,0
2018-01-19T00:27:40.104Z,0
2018-01-19T00:28:40.808Z,0
2018-01-19T00:29:41.513Z,0
2018-01-19T00:30:42.232Z,0
2018-01-19T00:31:42.936Z,0
2018-01-19T00:32:43.641Z,0
2018-01-19T00:33:44.345Z,0
2018-01-19T00:34:45.049Z,0
2018-01-19T00:35:45.767Z,0
2018-01-19T00:36:46.469Z,0
2018-01-19T00:37:47.190Z,0
2018-01-19T00:38:47.898Z,0
2018-01-19T00:39:48.612Z,0
2018-01-19T00:40:49.333Z,0
2018-01-19T00:41:50.045Z,0
2018-01-19T00:42:50.747Z,0
2018-01-19T00:43:51.451Z,0
2018-01-19T00:44:52.155Z,0
2018-01-19T00:45:52.861Z,0
2018-01-19T00:46:53.564Z,0
2018-01-19T00:47:54.267Z,0
2018-01-19T00:48:54.971Z,0
2018-01-19T00:49:55.675Z,0
2018-01-19T00:50:56.378Z,0
2018-01-19T00:51:57.082Z,0
2018-01-19T00:52:57.799Z,0
2018-01-19T00:53:58.517Z,0
2018-01-19T00:54:59.221Z,0
2018-01-19T00:55:59.939Z,0
2018-01-19T00:57:00.943Z,0
2018-01-19T00:58:01.647Z,0
2018-01-19T00:59:02.350Z,0
2018-01-19T01:00:03.053Z,0
2018-01-19T01:01:03.756Z,0
2018-01-19T01:02:04.473Z,0
2018-01-19T01:03:05.177Z,0
2018-01-19T01:04:05.882Z,0
2018-01-19T01:05:06.587Z,0
2018-01-19T01:06:07.291Z,0
2018-01-19T01:07:08.012Z,0
2018-01-19T01:08:08.717Z,0
2018-01-19T01:09:09.422Z,0
2018-01-19T01:10:10.127Z,0
2018-01-19T01:11:10.849Z,0
2018-01-19T01:12:11.564Z,0
2018-01-19T01:13:12.284Z,0
2018-01-19T01:14:12.991Z,0
2018-01-19T01:15:13.707Z,0
2018-01-19T01:16:14.412Z,0
2018-01-19T01:17:15.116Z,0
2018-01-19T01:18:15.836Z,0
2018-01-19T01:19:16.554Z,0
2018-01-19T01:20:17.258Z,0
2018-01-19T01:21:17.961Z,0
2018-01-19T01:22:18.664Z,0
2018-01-19T01:23:19.367Z,0
2018-01-19T01:24:20.084Z,0
2018-01-19T01:25:20.801Z,0
2018-01-19T01:26:21.520Z,0
2018-01-19T01:27:22.240Z,0
2018-01-19T01:28:22.941Z,0
2018-01-19T01:29:23.645Z,0
2018-01-19T01:30:24.348Z,0
2018-01-19T01:31:25.052Z,0
2018-01-19T01:32:25.767Z,0
2018-01-19T01:33:26.484Z,0
2018-01-19T01:34:27.199Z,0
2018-01-19T01:35:27.904Z,0
2018-01-19T01:36:28.619Z,0
2018-01-19T01:37:29.321Z,0
2018-01-19T01:38:30.027Z,0
2018-01-19T01:39:30.729Z,0
2018-01-19T01:40:31.447Z,0
2018-01-19T01:41:32.164Z,0
2018-01-19T01:42:32.866Z,0
2018-01-19T01:43:33.583Z,0
2018-01-19T01:44:34.285Z,0
2018-01-19T01:45:34.989Z,0
2018-01-19T01:46:35.694Z,0
2018-01-19T01:47:36.398Z,0
2018-01-19T01:48:37.101Z,0
2018-01-19T01:49:37.804Z,0
2018-01-19T01:50:38.508Z,0
2018-01-19T01:51:39.215Z,0
2018-01-19T01:52:39.914Z,0
2018-01-19T01:53:40.619Z,0
2018-01-19T01:54:41.323Z,0
2018-01-19T01:55:42.037Z,0
2018-01-19T01:56:42.742Z,0
2018-01-19T01:57:43.445Z,0
2018-01-19T01:58:44.147Z,0
2018-01-19T01:59:44.866Z,0
2018-01-19T02:00:45.572Z,0
2018-01-19T02:01:46.274Z,0
2018-01-19T02:02:46.990Z,0
2018-01-19T02:03:47.693Z,0
2018-01-19T02:04:48.395Z,0
2018-01-19T02:05:49.101Z,0
2018-01-19T02:06:49.817Z,0
2018-01-19T02:07:50.534Z,0
2018-01-19T02:08:51.239Z,0
2018-01-19T02:09:51.944Z,0
2018-01-19T02:10:52.662Z,0
2018-01-19T02:11:53.365Z,0
2018-01-19T02:12:54.080Z,0
2018-01-19T02:13:54.784Z,0
2018-01-19T02:14:55.486Z,0
2018-01-19T02:15:56.190Z,0
2018-01-19T02:16:56.892Z,0
2018-01-19T02:17:57.596Z,0
2018-01-19T02:18:58.300Z,0
2018-01-19T02:19:59.003Z,0
2018-01-19T02:20:59.707Z,0
2018-01-19T02:22:00.422Z,0
2018-01-19T02:23:01.141Z,0
2018-01-19T02:24:01.845Z,0
2018-01-19T02:25:02.549Z,0
2018-01-19T02:26:03.253Z,0
2018-01-19T02:27:03.955Z,0
2018-01-19T02:28:04.658Z,0
2018-01-19T02:29:05.360Z,0
2018-01-19T02:30:06.076Z,0
2018-01-19T02:31:06.791Z,0
2018-01-19T02:32:07.516Z,0
2018-01-19T02:33:08.213Z,0
2018-01-19T02:34:08.931Z,0
2018-01-19T02:35:09.634Z,0
2018-01-19T02:36:10.337Z,0
2018-01-19T02:37:11.039Z,0
2018-01-19T02:38:11.742Z,0
2018-01-19T02:39:12.443Z,0
2018-01-19T02:40:13.159Z,0
2018-01-19T02:41:13.864Z,0
2018-01-19T02:42:14.566Z,0
2018-01-19T02:43:15.270Z,0
2018-01-19T02:44:15.985Z,0
2018-01-19T02:45:16.702Z,0
2018-01-19T02:46:17.415Z,0
2018-01-19T02:47:18.124Z,0
2018-01-19T02:48:18.827Z,0
2018-01-19T02:49:19.531Z,0
2018-01-19T02:50:20.244Z,0
2018-01-19T02:51:20.948Z,0
2018-01-19T02:52:21.655Z,0
2018-01-19T02:53:22.356Z,0
2018-01-19T02:54:23.062Z,0
2018-01-19T02:55:23.773Z,0
2018-01-19T02:56:24.476Z,0
2018-01-19T02:57:25.179Z,0
2018-01-19T02:58:25.882Z,0
2018-01-19T02:59:26.586Z,0
2018-01-19T03:00:27.303Z,0
2018-01-19T03:01:28.013Z,0
2018-01-19T03:02:28.712Z,0
2018-01-19T03:03:29.419Z,0
2018-01-19T03:04:30.130Z,0
2018-01-19T03:05:30.832Z,0
2018-01-19T03:06:31.536Z,0
2018-01-19T03:07:32.238Z,0
2018-01-19T03:08:32.940Z,0
2018-01-19T03:09:33.642Z,0
2018-01-19T03:10:34.345Z,0
2018-01-19T03:11:35.051Z,0
2018-01-19T03:12:35.763Z,0
2018-01-19T03:13:36.474Z,0
2018-01-19T03:14:37.184Z,0
2018-01-19T03:15:37.889Z,0
2018-01-19T03:16:38.592Z,0
2018-01-19T03:17:39.296Z,0
2018-01-19T03:18:40.000Z,0
2018-01-19T03:19:40.704Z,0
2018-01-19T03:20:41.406Z,0
2018-01-19T03:21:42.109Z,0
2018-01-19T03:22:42.813Z,0
2018-01-19T03:23:43.532Z,0
2018-01-19T03:24:44.235Z,0
2018-01-19T03:25:44.939Z,0
2018-01-19T03:26:45.642Z,0
2018-01-19T03:27:46.346Z,0
2018-01-19T03:28:47.050Z,0
2018-01-19T03:29:47.764Z,0
2018-01-19T03:30:48.467Z,0
2018-01-19T03:31:49.169Z,0
2018-01-19T03:32:49.871Z,0
2018-01-19T03:33:50.586Z,0
2018-01-19T03:34:51.289Z,0
2018-01-19T03:35:51.994Z,0
2018-01-19T03:36:52.698Z,0
2018-01-19T03:37:53.400Z,0
2018-01-19T03:38:54.106Z,0
2018-01-19T03:39:54.809Z,0
2018-01-19T03:40:55.513Z,0
2018-01-19T03:41:56.228Z,0
2018-01-19T03:42:56.932Z,0
2018-01-19T03:43:57.633Z,0
2018-01-19T03:44:58.336Z,0
2018-01-19T03:45:59.041Z,0
2018-01-19T03:46:59.759Z,0
2018-01-19T03:48:00.461Z,0
2018-01-19T03:49:01.170Z,0
2018-01-19T03:50:01.881Z,0
2018-01-19T03:51:02.595Z,0
2018-01-19T03:52:03.298Z,0
2018-01-19T03:53:04.001Z,0
2018-01-19T03:54:04.710Z,0
2018-01-19T03:55:05.408Z,0
2018-01-19T03:56:06.111Z,0
2018-01-19T03:57:06.815Z,0
2018-01-19T03:58:07.519Z,0
2018-01-19T03:59:08.222Z,0
2018-01-19T04:00:08.926Z,0
2018-01-19T04:01:09.630Z,0
2018-01-19T04:02:10.333Z,0
2018-01-19T04:03:11.048Z,0
2018-01-19T04:04:11.767Z,0
2018-01-19T04:05:12.472Z,0
2018-01-19T04:06:13.180Z,0
2018-01-19T04:07:13.888Z,0
2018-01-19T04:08:14.591Z,0
2018-01-19T04:09:15.293Z,0
2018-01-19T04:10:15.996Z,0
2018-01-19T04:11:16.699Z,0
2018-01-19T04:12:17.402Z,0
2018-01-19T04:13:18.104Z,0
2018-01-19T04:14:18.806Z,0
2018-01-19T04:15:19.507Z,0
2018-01-19T04:16:20.210Z,0
2018-01-19T04:17:20.914Z,0
2018-01-19T04:18:21.620Z,0
2018-01-19T04:19:22.337Z,0
2018-01-19T04:20:23.035Z,0
2018-01-19T04:21:23.738Z,0
2018-01-19T04:22:24.441Z,0
2018-01-19T04:23:25.155Z,0
2018-01-19T04:24:25.858Z,0
2018-01-19T04:25:26.562Z,0
2018-01-19T04:26:27.265Z,0
2018-01-19T04:27:27.971Z,0
2018-01-19T04:28:28.672Z,0
2018-01-19T04:29:29.376Z,0
2018-01-19T04:30:30.080Z,0
2018-01-19T04:31:30.783Z,0
2018-01-19T04:32:31.499Z,0
2018-01-19T04:33:32.201Z,0
2018-01-19T04:34:32.903Z,0
2018-01-19T04:35:33.610Z,0
2018-01-19T04:36:34.322Z,0
2018-01-19T04:37:35.028Z,0
2018-01-19T04:38:35.732Z,0
2018-01-19T04:39:36.448Z,0
2018-01-19T04:40:37.152Z,0
2018-01-19T04:41:37.866Z,0
2018-01-19T04:42:38.569Z,0
2018-01-19T04:43:39.269Z,0
2018-01-19T04:44:39.971Z,0
2018-01-19T04:45:40.674Z,0
2018-01-19T04:46:41.391Z,0
2018-01-19T04:47:42.092Z,0
2018-01-19T04:48:42.798Z,0
2018-01-19T04:49:43.499Z,0
2018-01-19T04:50:44.204Z,0
2018-01-19T04:51:44.904Z,0
2018-01-19T04:52:45.605Z,0
2018-01-19T04:53:46.322Z,0
2018-01-19T04:54:47.037Z,0
2018-01-19T04:55:47.739Z,0
2018-01-19T04:56:48.441Z,0
2018-01-19T04:57:49.141Z,0
2018-01-19T04:58:49.844Z,0
2018-01-19T04:59:50.548Z,0
2018-01-19T05:00:51.264Z,0
2018-01-19T05:01:51.966Z,0
2018-01-19T05:02:52.679Z,0
2018-01-19T05:03:53.378Z,0
2018-01-19T05:04:54.082Z,0
2018-01-19T05:05:54.784Z,0
2018-01-19T05:06:55.485Z,0
2018-01-19T05:07:56.186Z,0
2018-01-19T05:08:56.888Z,0
2018-01-19T05:09:57.589Z,0
2018-01-19T05:10:58.293Z,0
2018-01-19T05:11:59.005Z,0
2018-01-19T05:12:59.763Z,0
2018-01-19T05:14:00.435Z,0
2018-01-19T05:15:01.137Z,0
2018-01-19T05:16:01.838Z,0
2018-01-19T05:17:02.540Z,0
2018-01-19T05:18:03.258Z,0
2018-01-19T05:19:03.959Z,0
2018-01-19T05:20:04.664Z,0
2018-01-19T05:21:05.381Z,0
2018-01-19T05:22:06.082Z,0
2018-01-19T05:23:06.783Z,0
2018-01-19T05:24:07.485Z,0
2018-01-19T05:25:08.187Z,0
2018-01-19T05:26:08.888Z,0
2018-01-19T05:27:09.592Z,0
2018-01-19T05:28:10.292Z,0
2018-01-19T05:29:10.995Z,0
2018-01-19T05:30:11.699Z,0
2018-01-19T05:31:12.403Z,0
2018-01-19T05:32:13.122Z,0
2018-01-19T05:33:13.825Z,0
2018-01-19T05:34:14.527Z,0
2018-01-19T05:35:15.241Z,0
2018-01-19T05:36:15.959Z,0
2018-01-19T05:37:16.663Z,0
2018-01-19T05:38:17.381Z,0
2018-01-19T05:39:18.084Z,0
2018-01-19T05:40:18.787Z,0
2018-01-19T05:41:19.488Z,0
2018-01-19T05:42:20.191Z,0
2018-01-19T05:43:20.895Z,0
2018-01-19T05:44:21.597Z,0
2018-01-19T05:45:22.301Z,0
2018-01-19T05:46:23.003Z,0
2018-01-19T05:47:23.707Z,0
2018-01-19T05:48:24.409Z,0
2018-01-19T05:49:25.116Z,0
2018-01-19T05:50:25.830Z,0
2018-01-19T05:51:26.531Z,0
2018-01-19T05:52:27.246Z,0
2018-01-19T05:53:27.954Z,0
2018-01-19T05:54:28.657Z,0
2018-01-19T05:55:29.359Z,0
2018-01-19T05:56:30.078Z,0
2018-01-19T05:57:30.782Z,0
2018-01-19T05:58:31.487Z,0
2018-01-19T05:59:32.192Z,0
2018-01-19T06:00:32.895Z,0
2018-01-19T06:01:33.599Z,0
2018-01-19T06:02:34.303Z,0
2018-01-19T06:03:35.010Z,0
2018-01-19T06:04:35.710Z,0
2018-01-19T06:05:36.415Z,0
2018-01-19T06:06:37.119Z,0
2018-01-19T06:07:37.823Z,0
2018-01-19T06:08:38.533Z,0
2018-01-19T06:09:39.242Z,0
2018-01-19T06:10:39.946Z,0
2018-01-19T06:11:40.649Z,0
2018-01-19T06:12:41.354Z,0
2018-01-19T06:13:42.067Z,0
2018-01-19T06:14:42.769Z,0
2018-01-19T06:15:43.472Z,0
2018-01-19T06:16:44.178Z,0
2018-01-19T06:17:44.878Z,0
2018-01-19T06:18:45.582Z,0
2018-01-19T06:19:46.298Z,0
2018-01-19T06:20:47.001Z,0
2018-01-19T06:21:47.705Z,0
2018-01-19T06:22:48.407Z,0
2018-01-19T06:23:49.111Z,0
2018-01-19T06:24:49.827Z,0
2018-01-19T06:25:50.530Z,0
2018-01-19T06:26:51.233Z,0
2018-01-19T06:27:51.936Z,0
2018-01-19T06:28:52.640Z,0
2018-01-19T06:29:53.343Z,0
2018-01-19T06:30:54.048Z,0
2018-01-19T06:31:54.751Z,0
2018-01-19T06:32:55.454Z,0
2018-01-19T06:33:56.158Z,0
2018-01-19T06:34:56.874Z,0
2018-01-19T06:35:57.576Z,0
2018-01-19T06:36:58.278Z,0
2018-01-19T06:37:58.980Z,0
2018-01-19T06:38:59.683Z,0
2018-01-19T06:40:00.389Z,0
2018-01-19T06:41:01.103Z,0
2018-01-19T06:42:01.807Z,0
2018-01-19T06:43:02.523Z,0
2018-01-19T06:44:03.225Z,0
2018-01-19T06:45:03.927Z,0
2018-01-19T06:46:04.630Z,0
2018-01-19T06:47:05.333Z,0
2018-01-19T06:48:06.037Z,0
2018-01-19T06:49:06.741Z,0
2018-01-19T06:50:07.459Z,0
2018-01-19T06:51:08.167Z,0
2018-01-19T06:52:08.866Z,0
2018-01-19T06:53:09.570Z,0
2018-01-19T06:54:10.273Z,0
2018-01-19T06:55:10.977Z,0
2018-01-19T06:56:11.692Z,4
2018-01-19T06:57:12.406Z,4
2018-01-19T06:58:13.124Z,0
2018-01-19T06:59:13.827Z,0
2018-01-19T07:00:14.531Z,0
2018-01-19T07:01:15.235Z,4
2018-01-19T07:02:15.940Z,4
2018-01-19T07:03:16.657Z,4
2018-01-19T07:04:17.360Z,4
2018-01-19T07:05:18.062Z,4
2018-01-19T07:06:18.764Z,8
2018-01-19T07:07:19.468Z,12
2018-01-19T07:08:20.185Z,16
2018-01-19T07:09:20.889Z,12
2018-01-19T07:10:21.594Z,12
2018-01-19T07:11:22.300Z,16
2018-01-19T07:12:23.005Z,24
2018-01-19T07:13:23.708Z,32
2018-01-19T07:14:24.412Z,36
2018-01-19T07:15:25.115Z,44
2018-01-19T07:16:25.819Z,44
2018-01-19T07:17:26.527Z,52
2018-01-19T07:18:27.225Z,52
2018-01-19T07:19:27.928Z,48
2018-01-19T07:20:28.632Z,52
2018-01-19T07:21:29.350Z,52
2018-01-19T07:22:30.056Z,68
2018-01-19T07:23:30.773Z,68
2018-01-19T07:24:31.490Z,76
2018-01-19T07:25:32.209Z,80
2018-01-19T07:26:32.926Z,88
2018-01-19T07:27:33.631Z,100
2018-01-19T07:28:34.335Z,100
2018-01-19T07:29:35.037Z,112
2018-01-19T07:30:35.741Z,124
2018-01-19T07:31:36.445Z,120
2018-01-19T07:32:37.163Z,140
2018-01-19T07:33:37.867Z,160
2018-01-19T07:34:38.571Z,180
2018-01-19T07:35:39.275Z,204
2018-01-19T07:36:39.995Z,208
2018-01-19T07:37:40.700Z,244
2018-01-19T07:38:41.404Z,228
2018-01-19T07:39:42.111Z,248
2018-01-19T07:40:42.815Z,240
2018-01-19T07:41:43.519Z,224
2018-01-19T07:42:44.236Z,224
2018-01-19T07:43:44.943Z,200
2018-01-19T07:44:45.662Z,224
2018-01-19T07:45:46.383Z,232
2018-01-19T07:46:47.087Z,244
2018-01-19T07:47:47.793Z,244
2018-01-19T07:48:48.498Z,244
2018-01-19T07:49:49.215Z,268
2018-01-19T07:50:49.935Z,248
2018-01-19T07:51:50.639Z,264
2018-01-19T07:52:51.357Z,272
2018-01-19T07:53:52.064Z,264
2018-01-19T07:54:52.771Z,200
2018-01-19T07:55:53.476Z,176
2018-01-19T07:56:54.180Z,172
2018-01-19T07:57:54.885Z,148
2018-01-19T07:58:55.592Z,156
2018-01-19T07:59:56.297Z,176
2018-01-19T08:00:57.003Z,220
2018-01-19T08:01:57.709Z,256
2018-01-19T08:02:58.428Z,276
2018-01-19T08:03:59.135Z,292
2018-01-19T08:04:59.842Z,296
2018-01-19T08:06:00.563Z,300
2018-01-19T08:07:01.282Z,272
2018-01-19T08:08:01.997Z,264
2018-01-19T08:09:02.703Z,320
2018-01-19T08:10:03.411Z,376
2018-01-19T08:11:04.115Z,404
2018-01-19T08:12:04.820Z,344
2018-01-19T08:13:05.540Z,336
2018-01-19T08:14:06.247Z,392
2018-01-19T08:15:06.997Z,436
2018-01-19T08:16:07.668Z,428
2018-01-19T08:17:08.376Z,380
2018-01-19T08:18:09.081Z,336
2018-01-19T08:19:09.786Z,312
2018-01-19T08:20:10.507Z,356
2018-01-19T08:21:11.213Z,396
2018-01-19T08:22:11.918Z,448
2018-01-19T08:23:12.635Z,460
2018-01-19T08:24:13.342Z,472
2018-01-19T08:25:14.048Z,492
2018-01-19T08:26:14.754Z,484
2018-01-19T08:27:15.476Z,516
2018-01-19T08:28:16.182Z,520
2018-01-19T08:29:16.889Z,508
2018-01-19T08:30:17.594Z,500
2018-01-19T08:31:18.299Z,608
2018-01-19T08:32:19.006Z,628
2018-01-19T08:33:19.713Z,572
2018-01-19T08:34:20.419Z,680
2018-01-19T08:35:21.125Z,656
2018-01-19T08:36:21.834Z,708
2018-01-19T08:37:22.554Z,808
2018-01-19T08:38:23.260Z,860
2018-01-19T08:39:23.967Z,908
2018-01-19T08:40:24.675Z,1008
2018-01-19T08:41:25.382Z,1004
2018-01-19T08:42:26.091Z,816
2018-01-19T08:43:26.814Z,1168
2018-01-19T08:44:27.535Z,1080
2018-01-19T08:45:28.242Z,864
2018-01-19T08:46:28.965Z,988
2018-01-19T08:47:29.674Z,796
2018-01-19T08:48:30.395Z,1028
2018-01-19T08:49:31.118Z,1408
2018-01-19T08:50:31.825Z,1288
2018-01-19T08:51:32.533Z,1240
2018-01-19T08:52:33.241Z,1184
2018-01-19T08:53:33.962Z,1184
2018-01-19T08:54:34.672Z,1196
2018-01-19T08:55:35.394Z,1224
2018-01-19T08:56:36.116Z,1336
2018-01-19T08:57:36.823Z,1480
2018-01-19T08:58:37.534Z,1608
2018-01-19T08:59:38.242Z,1800
2018-01-19T09:00:38.948Z,1996
2018-01-19T09:01:39.670Z,2084
2018-01-19T09:02:40.378Z,2688
2018-01-19T09:03:41.086Z,3064
2018-01-19T09:04:41.808Z,3508
2018-01-19T09:05:42.517Z,4036
2018-01-19T09:06:43.241Z,4308
2018-01-19T09:07:43.950Z,3552
2018-01-19T09:08:44.660Z,2916
2018-01-19T09:09:45.370Z,2452
2018-01-19T09:10:46.078Z,2296
2018-01-19T09:11:46.786Z,2152
2018-01-19T09:12:47.501Z,2300
2018-01-19T09:13:48.205Z,2232
2018-01-19T09:14:48.916Z,2680
2018-01-19T09:15:49.624Z,3092
2018-01-19T09:16:50.333Z,3276
2018-01-19T09:17:51.044Z,3360
2018-01-19T09:18:51.751Z,3364
2018-01-19T09:19:52.465Z,3104
2018-01-19T09:20:53.173Z,2768
2018-01-19T09:21:53.896Z,2696
2018-01-19T09:22:54.606Z,2624
2018-01-19T09:23:55.328Z,2604
2018-01-19T09:24:56.052Z,2484
2018-01-19T09:25:56.761Z,2252
2018-01-19T09:26:57.470Z,2276
2018-01-19T09:27:58.181Z,2516
2018-01-19T09:28:58.890Z,2660
2018-01-19T09:29:59.598Z,2432
2018-01-19T09:31:00.306Z,2164
2018-01-19T09:32:01.029Z,2204
2018-01-19T09:33:01.736Z,2220
2018-01-19T09:34:02.445Z,2376
2018-01-19T09:35:03.167Z,2340
2018-01-19T09:36:03.890Z,2508
2018-01-19T09:37:04.597Z,2512
2018-01-19T09:38:05.307Z,2584
2018-01-19T09:39:06.016Z,2460
2018-01-19T09:40:06.724Z,2736
2018-01-19T09:41:07.434Z,2624
2018-01-19T09:42:08.145Z,2572
2018-01-19T09:43:08.856Z,2804
2018-01-19T09:44:09.583Z,2800
2018-01-19T09:45:10.288Z,2820
2018-01-19T09:46:10.998Z,3024
2018-01-19T09:47:11.709Z,2988
2018-01-19T09:48:12.420Z,3008
2018-01-19T09:49:13.129Z,2788
2018-01-19T09:50:13.838Z,2700
2018-01-19T09:51:14.561Z,2720
2018-01-19T09:52:15.270Z,2764
2018-01-19T09:53:15.982Z,2416
2018-01-19T09:54:16.705Z,1868
2018-01-19T09:55:17.414Z,1560
2018-01-19T09:56:18.143Z,1980
2018-01-19T09:57:18.859Z,2504
2018-01-19T09:58:19.571Z,2852
2018-01-19T09:59:20.277Z,2932
2018-01-19T10:00:21.003Z,3744
2018-01-19T10:01:21.714Z,4140
2018-01-19T10:02:22.424Z,4300
2018-01-19T10:03:23.135Z,3980
2018-01-19T10:04:23.842Z,5172
2018-01-19T10:05:24.567Z,5708
2018-01-19T10:06:25.277Z,7076
2018-01-19T10:07:25.987Z,6748
2018-01-19T10:08:26.698Z,6728
2018-01-19T10:09:27.408Z,7332
2018-01-19T10:10:28.119Z,7288
2018-01-19T10:11:28.831Z,7588
2018-01-19T10:12:29.542Z,7372
2018-01-19T10:13:30.268Z,6860
2018-01-19T10:14:30.979Z,5604
2018-01-19T10:15:31.690Z,5432
2018-01-19T10:16:32.415Z,6120
2018-01-19T10:17:33.140Z,6428
2018-01-19T10:18:33.865Z,6072
2018-01-19T10:19:34.577Z,7264
2018-01-19T10:20:35.288Z,5676
2018-01-19T10:21:36.007Z,5740
2018-01-19T10:22:36.710Z,4088
2018-01-19T10:23:37.424Z,3540
2018-01-19T10:24:38.133Z,3412
2018-01-19T10:25:38.843Z,3484
2018-01-19T10:26:39.554Z,5020
2018-01-19T10:27:40.265Z,5216
2018-01-19T10:28:40.976Z,5276
2018-01-19T10:29:41.688Z,5140
2018-01-19T10:30:42.413Z,4864
2018-01-19T10:31:43.123Z,6028
2018-01-19T10:32:43.835Z,4540
2018-01-19T10:33:44.546Z,8276
2018-01-19T10:34:45.259Z,12156
2018-01-19T10:35:45.972Z,5204
2018-01-19T10:36:46.686Z,3980
2018-01-19T10:37:47.396Z,5536
2018-01-19T10:38:48.111Z,6424
2018-01-19T10:39:48.820Z,6652
2018-01-19T10:40:49.550Z,4560
2018-01-19T10:41:50.272Z,3696
2018-01-19T10:42:50.985Z,2744
2018-01-19T10:43:51.698Z,2544
2018-01-19T10:44:52.411Z,2976
2018-01-19T10:45:53.122Z,6544
2018-01-19T10:46:53.835Z,6976
2018-01-19T10:47:54.562Z,4816
2018-01-19T10:48:55.275Z,7528
2018-01-19T10:49:55.987Z,16320
2018-01-19T10:50:56.716Z,17312
2018-01-19T10:51:57.430Z,8612
2018-01-19T10:52:58.155Z,10220
2018-01-19T10:53:58.868Z,8220
2018-01-19T10:54:59.582Z,13024
2018-01-19T10:56:00.297Z,10600
2018-01-19T10:57:01.013Z,20000
2018-01-19T10:58:01.727Z,10988
2018-01-19T10:59:02.444Z,18688
2018-01-19T11:00:03.160Z,17280
2018-01-19T11:01:03.877Z,17760
2018-01-19T11:02:04.606Z,21920
2018-01-19T11:03:05.324Z,18112
2018-01-19T11:04:06.041Z,21216
2018-01-19T11:05:06.759Z,21216
2018-01-19T11:06:07.489Z,7464
2018-01-19T11:07:08.206Z,6816
2018-01-19T11:08:08.921Z,22688
2018-01-19T11:09:09.639Z,9260
2018-01-19T11:10:10.355Z,7936
2018-01-19T11:11:11.071Z,12852
2018-01-19T11:12:11.785Z,10636
2018-01-19T11:13:12.501Z,8164
2018-01-19T11:14:13.218Z,6976
2018-01-19T11:15:13.934Z,7404
2018-01-19T11:16:14.649Z,7716
2018-01-19T11:17:15.375Z,6980
2018-01-19T11:18:16.091Z,5368
2018-01-19T11:19:16.818Z,5504
2018-01-19T11:20:17.531Z,5800
2018-01-19T11:21:18.245Z,5964
2018-01-19T11:22:18.974Z,9188
2018-01-19T11:23:19.689Z,8272
2018-01-19T11:24:20.401Z,7796
2018-01-19T11:25:21.168Z,6012
2018-01-19T11:26:21.843Z,7108
2018-01-19T11:27:22.559Z,8180
2018-01-19T11:28:23.271Z,5556
2018-01-19T11:29:23.994Z,6952
2018-01-19T11:30:24.706Z,9284
2018-01-19T11:31:25.422Z,12800
2018-01-19T11:32:26.149Z,16800
2018-01-19T11:33:26.864Z,22528
2018-01-19T11:34:27.578Z,16672
2018-01-19T11:35:28.293Z,5940
2018-01-19T11:36:29.007Z,7180
2018-01-19T11:37:29.720Z,7924
2018-01-19T11:38:30.434Z,8344
2018-01-19T11:39:31.148Z,7904
2018-01-19T11:40:31.861Z,8336
2018-01-19T11:41:32.575Z,7356
2018-01-19T11:42:33.291Z,6480
2018-01-19T11:43:34.004Z,6892
2018-01-19T11:44:34.730Z,5884
2018-01-19T11:45:35.447Z,8436
2018-01-19T11:46:36.157Z,8500
2018-01-19T11:47:36.872Z,9456
2018-01-19T11:48:37.598Z,6624
2018-01-19T11:49:38.311Z,6076
2018-01-19T11:50:39.022Z,4580
2018-01-19T11:51:39.735Z,3288
2018-01-19T11:52:40.449Z,2264
2018-01-19T11:53:41.160Z,2472
2018-01-19T11:54:41.873Z,2572
2018-01-19T11:55:42.588Z,3100
2018-01-19T11:56:43.316Z,3380
2018-01-19T11:57:44.040Z,2924
2018-01-19T11:58:44.767Z,3004
2018-01-19T11:59:45.480Z,4548
2018-01-19T12:00:46.192Z,3480
2018-01-19T12:01:46.902Z,5016
2018-01-19T12:02:47.630Z,6324
2018-01-19T12:03:48.358Z,8724
2018-01-19T12:04:49.072Z,13596
2018-01-19T12:05:49.784Z,23520
2018-01-19T12:06:50.499Z,13232
2018-01-19T12:07:51.216Z,13132
2018-01-19T12:08:51.930Z,11880
2018-01-19T12:09:52.645Z,7192
2018-01-19T12:10:53.368Z,6592
2018-01-19T12:11:54.083Z,6600
2018-01-19T12:12:54.796Z,9264
2018-01-19T12:13:55.512Z,17152
2018-01-19T12:14:56.225Z,5604
2018-01-19T12:15:56.939Z,3960
2018-01-19T12:16:57.667Z,5068
2018-01-19T12:17:58.393Z,8824
2018-01-19T12:18:59.092Z,7968
2018-01-19T12:19:59.806Z,7148
2018-01-19T12:21:00.531Z,6600
2018-01-19T12:22:01.245Z,5716
2018-01-19T12:23:01.958Z,5824
2018-01-19T12:24:02.672Z,9304
2018-01-19T12:25:03.384Z,7264
2018-01-19T12:26:04.099Z,8120
2018-01-19T12:27:04.812Z,9680
2018-01-19T12:28:05.525Z,6116
2018-01-19T12:29:06.241Z,7748
2018-01-19T12:30:06.971Z,6352
2018-01-19T12:31:07.680Z,6556
2018-01-19T12:32:08.393Z,8080
2018-01-19T12:33:09.105Z,4840
2018-01-19T12:34:09.821Z,3492
2018-01-19T12:35:10.534Z,5156
2018-01-19T12:36:11.262Z,5752
2018-01-19T12:37:11.975Z,4348
2018-01-19T12:38:12.705Z,3872
2018-01-19T12:39:13.414Z,3820
2018-01-19T12:40:14.128Z,4156
2018-01-19T12:41:14.856Z,3728
2018-01-19T12:42:15.582Z,3328
2018-01-19T12:43:16.298Z,2840
2018-01-19T12:44:17.006Z,2412
2018-01-19T12:45:17.732Z,2308
2018-01-19T12:46:18.456Z,2220
2018-01-19T12:47:19.167Z,2580
2018-01-19T12:48:19.880Z,2376
2018-01-19T12:49:20.592Z,2080
2018-01-19T12:50:21.320Z,2732
2018-01-19T12:51:22.027Z,3076
2018-01-19T12:52:22.744Z,4372
2018-01-19T12:53:23.456Z,4532
2018-01-19T12:54:24.167Z,3536
2018-01-19T12:55:24.879Z,2608
2018-01-19T12:56:25.608Z,2008
2018-01-19T12:57:26.319Z,1640
2018-01-19T12:58:27.032Z,1356
2018-01-19T12:59:27.754Z,1456
2018-01-19T13:00:28.465Z,1352
2018-01-19T13:01:29.191Z,1568
2018-01-19T13:02:29.902Z,2768
2018-01-19T13:03:30.616Z,4024
2018-01-19T13:04:31.327Z,4600
2018-01-19T13:05:32.058Z,5888
2018-01-19T13:06:32.764Z,5536
2018-01-19T13:07:33.477Z,5324
2018-01-19T13:08:34.189Z,4480
2018-01-19T13:09:34.901Z,4200
2018-01-19T13:10:35.612Z,4320
2018-01-19T13:11:36.338Z,5540
2018-01-19T13:12:37.050Z,5292
2018-01-19T13:13:37.763Z,3860
2018-01-19T13:14:38.476Z,4168
2018-01-19T13:15:39.187Z,6184
2018-01-19T13:16:39.899Z,6692
2018-01-19T13:17:40.617Z,5224
2018-01-19T13:18:41.330Z,4200
2018-01-19T13:19:42.043Z,7780
2018-01-19T13:20:42.753Z,7180
2018-01-19T13:21:43.468Z,6092
2018-01-19T13:22:44.179Z,4304
2018-01-19T13:23:44.905Z,3768
2018-01-19T13:24:45.618Z,3416
2018-01-19T13:25:46.332Z,3448
2018-01-19T13:26:47.046Z,3232
2018-01-19T13:27:47.758Z,2904
2018-01-19T13:28:48.471Z,2452
2018-01-19T13:29:49.181Z,2292
2018-01-19T13:30:49.898Z,2568
2018-01-19T13:31:50.609Z,3244
2018-01-19T13:32:51.322Z,3644
2018-01-19T13:33:52.035Z,4784
2018-01-19T13:34:52.748Z,6356
2018-01-19T13:35:53.477Z,6784
2018-01-19T13:36:54.191Z,6544
2018-01-19T13:37:54.917Z,5388
2018-01-19T13:38:55.629Z,4540
2018-01-19T13:39:56.345Z,4104
2018-01-19T13:40:57.068Z,2852
2018-01-19T13:41:57.791Z,2112
2018-01-19T13:42:58.503Z,1816
2018-01-19T13:43:59.214Z,2024
2018-01-19T13:44:59.925Z,1740
2018-01-19T13:46:00.637Z,1368
2018-01-19T13:47:01.348Z,1268
2018-01-19T13:48:02.060Z,1204
2018-01-19T13:49:02.769Z,1368
2018-01-19T13:50:03.482Z,1348
2018-01-19T13:51:04.195Z,1240
2018-01-19T13:52:04.904Z,1292
2018-01-19T13:53:05.616Z,1500
2018-01-19T13:54:06.328Z,1784
2018-01-19T13:55:07.037Z,2124
2018-01-19T13:56:07.746Z,2628
2018-01-19T13:57:08.454Z,2824
2018-01-19T13:58:09.166Z,2768
2018-01-19T13:59:09.888Z,2304
2018-01-19T14:00:10.601Z,2792
2018-01-19T14:01:11.323Z,3176
2018-01-19T14:02:12.035Z,3168
2018-01-19T14:03:12.746Z,3292
2018-01-19T14:04:13.471Z,3348
2018-01-19T14:05:14.182Z,3460
2018-01-19T14:06:14.896Z,3464
2018-01-19T14:07:15.609Z,3288
2018-01-19T14:08:16.318Z,3328
2018-01-19T14:09:17.041Z,3708
2018-01-19T14:10:17.752Z,3976
2018-01-19T14:11:18.467Z,4056
2018-01-19T14:12:19.176Z,4060
2018-01-19T14:13:19.902Z,4196